Time;durP1;ratioP1;P1;durP2;ratioP2;P2;SDS_P1;SDS_P2;PMS_P1;PMS_P2;Temp;Humidity;BMP_temperature;BMP_pressure;BME280_temperature;BME280_humidity;BME280_pressure;Samples;Min_cycle;Max_cycle;Signal;HPM_P1;HPM_P2
2023/11/08 00:00:49;;;;;;;3.75;2.10;;;8.80;99.90;;;;;;4968485;28;20049;-78
2023/11/08 00:03:35;;;;;;;4.78;1.88;;;8.80;99.90;;;;;;4987278;28;20042;-78
2023/11/08 00:06:21;;;;;;;4.38;1.63;;;8.80;99.90;;;;;;4981326;28;20030;-78
2023/11/08 00:09:12;;;;;;;3.47;1.73;;;8.80;99.90;;;;;;4969776;28;20035;-78
2023/11/08 00:11:58;;;;;;;4.93;2.15;;;8.80;99.90;;;;;;4969564;28;20151;-79
2023/11/08 00:14:45;;;;;;;6.32;2.53;;;8.80;99.90;;;;;;4968300;28;20050;-78
2023/11/08 00:17:32;;;;;;;4.82;2.00;;;8.80;99.90;;;;;;4966853;28;20137;-78
2023/11/08 00:20:18;;;;;;;3.55;1.98;;;8.80;99.90;;;;;;4979997;28;20050;-78
2023/11/08 00:23:04;;;;;;;4.93;1.80;;;8.90;99.90;;;;;;4969237;28;20065;-78
2023/11/08 00:25:50;;;;;;;4.93;2.22;;;8.90;99.90;;;;;;4956990;28;20052;-78
2023/11/08 00:28:39;;;;;;;6.30;2.38;;;8.90;99.90;;;;;;4966552;28;20061;-79
2023/11/08 00:31:25;;;;;;;4.93;2.50;;;8.80;99.90;;;;;;4973306;28;20479;-78
2023/11/08 00:34:13;;;;;;;7.15;2.67;;;8.80;99.90;;;;;;4979759;28;20053;-78
2023/11/08 00:36:59;;;;;;;7.75;3.20;;;8.80;99.90;;;;;;4982014;28;20040;-77
2023/11/08 00:39:46;;;;;;;6.70;3.05;;;8.80;99.90;;;;;;4967044;28;20030;-78
2023/11/08 00:42:35;;;;;;;5.57;2.22;;;8.80;99.90;;;;;;4967433;28;20057;-78
2023/11/08 00:45:21;;;;;;;5.75;2.80;;;8.80;99.90;;;;;;4962516;28;20070;-78
2023/11/08 00:48:07;;;;;;;6.90;2.10;;;8.80;99.90;;;;;;4940364;28;20054;-78
2023/11/08 00:50:54;;;;;;;7.20;2.88;;;8.80;99.90;;;;;;4965577;28;20045;-78
2023/11/08 00:53:40;;;;;;;4.25;2.05;;;8.80;99.90;;;;;;4955151;28;20151;-78
2023/11/08 00:56:27;;;;;;;6.90;2.10;;;8.80;99.90;;;;;;4981427;28;20048;-77
2023/11/08 00:59:13;;;;;;;3.65;1.80;;;8.80;99.90;;;;;;4966541;28;20129;-77
2023/11/08 01:01:59;;;;;;;5.60;2.08;;;8.80;99.90;;;;;;4960263;28;20039;-76
2023/11/08 01:04:45;;;;;;;5.32;1.70;;;8.80;99.90;;;;;;4973867;28;20096;-76
2023/11/08 01:07:32;;;;;;;5.68;2.10;;;8.80;99.90;;;;;;4965462;28;20471;-76
2023/11/08 01:10:20;;;;;;;3.92;2.00;;;8.90;99.90;;;;;;4992015;28;20049;-76
2023/11/08 01:13:06;;;;;;;3.58;1.90;;;8.90;99.90;;;;;;4948344;28;20681;-76
2023/11/08 01:15:53;;;;;;;3.83;1.88;;;8.90;99.90;;;;;;4949604;28;20057;-76
2023/11/08 01:18:40;;;;;;;5.40;1.70;;;8.90;99.90;;;;;;4979987;28;20053;-76
2023/11/08 01:21:25;;;;;;;5.05;2.10;;;8.90;99.90;;;;;;4950470;28;20137;-76
2023/11/08 01:24:15;;;;;;;7.75;2.33;;;8.90;99.90;;;;;;4987863;28;20482;-76
2023/11/08 01:27:01;;;;;;;6.13;2.00;;;9.00;99.90;;;;;;4973871;28;20117;-76
2023/11/08 01:29:47;;;;;;;7.80;2.35;;;9.00;99.90;;;;;;4972167;28;20061;-76
2023/11/08 01:32:33;;;;;;;6.20;2.15;;;9.00;99.90;;;;;;4966794;28;20042;-76
2023/11/08 01:35:19;;;;;;;6.95;2.35;;;9.00;99.90;;;;;;4947401;28;20039;-76
2023/11/08 01:38:05;;;;;;;7.05;2.30;;;9.00;99.90;;;;;;4946366;28;20078;-76
2023/11/08 01:40:52;;;;;;;7.65;2.55;;;9.00;99.90;;;;;;4992918;28;20092;-76
2023/11/08 01:43:38;;;;;;;9.73;2.70;;;9.00;99.90;;;;;;4966381;28;20070;-76
2023/11/08 01:46:25;;;;;;;4.40;2.30;;;9.00;99.90;;;;;;4979564;28;20605;-76
2023/11/08 01:49:12;;;;;;;6.88;2.38;;;9.00;99.90;;;;;;4967081;28;20046;-76
2023/11/08 01:52:00;;;;;;;5.38;2.20;;;9.00;99.90;;;;;;4966568;28;20046;-75
2023/11/08 01:54:49;;;;;;;6.88;1.98;;;9.00;99.90;;;;;;4957812;28;20057;-76
2023/11/08 01:57:35;;;;;;;6.72;1.40;;;9.00;99.90;;;;;;4980466;28;20104;-76
2023/11/08 02:00:23;;;;;;;5.45;1.35;;;9.10;99.90;;;;;;4964179;28;20056;-76
2023/11/08 02:03:09;;;;;;;2.15;1.10;;;9.00;99.90;;;;;;4965523;28;20038;-75
2023/11/08 02:05:55;;;;;;;2.67;0.90;;;9.10;99.90;;;;;;4967024;28;20039;-76
2023/11/08 02:08:42;;;;;;;3.97;0.85;;;9.10;99.90;;;;;;4952320;28;20050;-75
2023/11/08 02:11:29;;;;;;;4.50;1.07;;;9.00;99.90;;;;;;4994207;28;20053;-76
2023/11/08 02:14:16;;;;;;;3.17;0.77;;;9.10;99.90;;;;;;4980953;28;20324;-76
2023/11/08 02:17:02;;;;;;;1.85;0.77;;;9.00;99.90;;;;;;4959872;28;20171;-76
2023/11/08 02:19:48;;;;;;;2.53;1.10;;;9.00;99.90;;;;;;4978639;28;20103;-76
2023/11/08 02:22:35;;;;;;;2.80;1.40;;;9.00;99.90;;;;;;4969196;28;20074;-76
2023/11/08 02:25:21;;;;;;;1.88;0.75;;;9.10;99.90;;;;;;4969488;28;20121;-76
2023/11/08 02:28:07;;;;;;;4.47;0.90;;;9.00;99.90;;;;;;4961211;28;20027;-75
2023/11/08 02:30:54;;;;;;;2.63;0.80;;;9.10;99.90;;;;;;4963954;28;20042;-75
2023/11/08 02:33:40;;;;;;;1.70;0.85;;;9.00;99.90;;;;;;4977305;28;20053;-75
2023/11/08 02:36:26;;;;;;;3.33;1.35;;;9.00;99.90;;;;;;4962047;28;20043;-76
2023/11/08 02:39:12;;;;;;;3.45;0.90;;;9.00;99.90;;;;;;4968172;28;20077;-75
2023/11/08 02:41:58;;;;;;;6.93;1.10;;;9.00;99.90;;;;;;4965520;28;20057;-76
2023/11/08 02:44:44;;;;;;;2.47;0.77;;;9.00;99.90;;;;;;4982001;28;20687;-76
2023/11/08 02:47:30;;;;;;;2.13;0.60;;;9.00;99.90;;;;;;4986977;28;20077;-76
2023/11/08 02:50:16;;;;;;;3.53;0.85;;;9.10;99.90;;;;;;4953572;28;20136;-76
2023/11/08 02:53:02;;;;;;;3.45;1.00;;;9.00;99.90;;;;;;4967968;28;20042;-76
2023/11/08 02:55:48;;;;;;;2.30;0.75;;;9.00;99.90;;;;;;4956065;28;20074;-76
2023/11/08 02:58:34;;;;;;;4.20;0.95;;;9.00;99.90;;;;;;4980462;28;20521;-77
2023/11/08 03:01:23;;;;;;;2.58;1.10;;;9.00;99.90;;;;;;4980784;28;20093;-77
2023/11/08 03:04:10;;;;;;;4.63;1.30;;;9.00;99.90;;;;;;4949210;28;20730;-77
2023/11/08 03:06:57;;;;;;;1.50;0.63;;;9.00;99.90;;;;;;4985064;28;20046;-76
2023/11/08 03:09:43;;;;;;;7.03;1.35;;;9.00;99.90;;;;;;4971231;28;20471;-76
2023/11/08 03:12:29;;;;;;;4.35;0.95;;;9.00;99.90;;;;;;4967677;28;20138;-76
2023/11/08 03:15:18;;;;;;;2.95;1.00;;;9.00;99.90;;;;;;4979901;28;20053;-76
2023/11/08 03:18:04;;;;;;;2.08;0.90;;;9.00;99.90;;;;;;4954213;28;20464;-79
2023/11/08 03:20:50;;;;;;;3.30;1.20;;;9.00;99.90;;;;;;4975005;28;20074;-78
2023/11/08 03:23:37;;;;;;;5.28;1.08;;;9.00;99.90;;;;;;4991144;28;20050;-78
2023/11/08 03:26:24;;;;;;;2.10;0.95;;;9.00;99.90;;;;;;4978316;28;20034;-78
2023/11/08 03:29:10;;;;;;;2.95;1.00;;;9.00;99.90;;;;;;4987858;28;20058;-78
2023/11/08 03:31:57;;;;;;;4.10;0.90;;;9.00;99.90;;;;;;4978939;28;20057;-78
2023/11/08 03:34:43;;;;;;;6.10;1.27;;;9.00;99.90;;;;;;4977098;28;20069;-78
2023/11/08 03:37:29;;;;;;;2.67;0.90;;;9.00;99.90;;;;;;4955185;28;20046;-78
2023/11/08 03:40:15;;;;;;;3.38;1.00;;;9.00;99.90;;;;;;4980592;28;20038;-78
2023/11/08 03:43:02;;;;;;;2.55;1.00;;;8.90;99.90;;;;;;4967958;28;20431;-78
2023/11/08 03:45:48;;;;;;;5.03;1.10;;;8.90;99.90;;;;;;4980877;28;20081;-78
2023/11/08 03:48:35;;;;;;;3.20;1.15;;;8.90;99.90;;;;;;4975590;28;20073;-78
2023/11/08 03:51:21;;;;;;;3.15;0.80;;;8.90;99.90;;;;;;4966222;28;20038;-78
2023/11/08 03:54:09;;;;;;;4.28;1.00;;;8.90;99.90;;;;;;4981893;28;20423;-78
2023/11/08 03:56:55;;;;;;;3.50;1.38;;;9.00;99.90;;;;;;4962695;28;20035;-78
2023/11/08 03:59:40;;;;;;;2.40;1.13;;;9.00;99.90;;;;;;4993212;28;20061;-79
2023/11/08 04:02:26;;;;;;;4.43;1.08;;;9.00;99.90;;;;;;4966944;28;20050;-78
2023/11/08 04:05:12;;;;;;;5.18;1.33;;;9.00;99.90;;;;;;4980206;28;20042;-78
2023/11/08 04:07:59;;;;;;;3.53;0.93;;;8.90;99.90;;;;;;4968060;28;20125;-78
2023/11/08 04:10:46;;;;;;;4.43;1.55;;;8.90;99.90;;;;;;4958921;28;20427;-78
2023/11/08 04:13:32;;;;;;;3.30;1.25;;;8.90;99.90;;;;;;4967429;28;20074;-78
2023/11/08 04:16:18;;;;;;;2.83;1.23;;;8.90;99.90;;;;;;4966659;28;20117;-78
2023/11/08 04:19:04;;;;;;;3.20;0.98;;;8.90;99.90;;;;;;4980113;28;20537;-79
2023/11/08 04:21:50;;;;;;;4.70;1.05;;;8.90;99.90;;;;;;4954915;28;20132;-78
2023/11/08 04:24:36;;;;;;;2.47;1.23;;;8.90;99.90;;;;;;4953899;28;20036;-78
2023/11/08 04:27:22;;;;;;;5.65;1.30;;;8.90;99.90;;;;;;4964693;28;20121;-78
2023/11/08 04:30:11;;;;;;;2.60;1.00;;;8.90;99.90;;;;;;4980372;28;20045;-78
2023/11/08 04:32:57;;;;;;;2.38;1.20;;;8.90;99.90;;;;;;4967248;28;20177;-78
2023/11/08 04:35:43;;;;;;;1.98;1.02;;;8.90;99.90;;;;;;4980327;28;20057;-78
2023/11/08 04:38:30;;;;;;;3.95;1.40;;;9.00;99.90;;;;;;4966319;28;20099;-78
2023/11/08 04:41:19;;;;;;;5.20;1.45;;;9.00;99.90;;;;;;4982232;28;20038;-78
2023/11/08 04:44:05;;;;;;;3.35;1.40;;;9.00;99.90;;;;;;4980746;28;20053;-78
2023/11/08 04:46:51;;;;;;;3.90;1.48;;;9.00;99.90;;;;;;4980423;28;20125;-78
2023/11/08 04:49:37;;;;;;;3.13;1.20;;;9.00;99.90;;;;;;4966060;28;20452;-78
2023/11/08 04:52:23;;;;;;;5.18;1.70;;;9.00;99.90;;;;;;4961176;28;20081;-78
2023/11/08 04:55:09;;;;;;;4.43;1.33;;;9.00;99.90;;;;;;4982712;28;20046;-78
2023/11/08 04:57:56;;;;;;;4.93;1.52;;;9.00;99.90;;;;;;4969460;28;20042;-78
2023/11/08 05:00:42;;;;;;;4.35;1.98;;;9.00;99.90;;;;;;4978906;28;20086;-78
2023/11/08 05:03:28;;;;;;;6.28;1.60;;;9.00;99.90;;;;;;4954145;28;20132;-78
2023/11/08 05:06:14;;;;;;;4.65;1.60;;;9.00;99.90;;;;;;4972886;28;20531;-78
2023/11/08 05:09:00;;;;;;;3.65;1.50;;;9.00;99.90;;;;;;4979246;28;20145;-78
2023/11/08 05:11:46;;;;;;;6.32;1.98;;;9.00;99.90;;;;;;4960628;28;20039;-78
2023/11/08 05:14:33;;;;;;;3.88;1.98;;;9.00;99.90;;;;;;4944799;28;20047;-78
2023/11/08 05:17:20;;;;;;;4.13;1.60;;;9.00;99.90;;;;;;4960303;28;20084;-78
2023/11/08 05:20:06;;;;;;;6.43;2.17;;;9.00;99.90;;;;;;4953168;28;20043;-78
2023/11/08 05:22:56;;;;;;;6.00;1.95;;;9.00;99.90;;;;;;4963683;28;20061;-78
2023/11/08 05:25:42;;;;;;;4.45;1.85;;;9.00;99.90;;;;;;4954458;28;20069;-78
2023/11/08 05:28:30;;;;;;;4.35;1.85;;;9.00;99.90;;;;;;4965636;28;20482;-78
2023/11/08 05:31:17;;;;;;;4.65;1.88;;;9.00;99.90;;;;;;4993071;28;20136;-77
2023/11/08 05:34:03;;;;;;;4.78;1.90;;;9.00;99.90;;;;;;4974773;28;20176;-78
2023/11/08 05:36:49;;;;;;;4.47;2.25;;;9.10;99.90;;;;;;4956034;28;20041;-78
2023/11/08 05:39:36;;;;;;;4.28;2.05;;;9.10;99.90;;;;;;4983824;28;20046;-78
2023/11/08 05:42:22;;;;;;;4.45;2.10;;;9.10;99.90;;;;;;4969598;28;20658;-78
2023/11/08 05:45:09;;;;;;;8.77;2.80;;;9.10;99.90;;;;;;4950911;28;20046;-78
2023/11/08 05:47:55;;;;;;;5.60;1.90;;;9.10;99.90;;;;;;4960306;28;20117;-78
2023/11/08 05:50:43;;;;;;;5.22;2.17;;;9.10;99.90;;;;;;4970015;28;20077;-78
2023/11/08 05:53:29;;;;;;;;;;;9.10;99.90;;;;;;4970394;28;20141;-77
2023/11/08 05:56:15;;;;;;;6.47;2.47;;;9.10;99.90;;;;;;5010007;28;19921;-78
2023/11/08 05:59:01;;;;;;;5.63;2.83;;;9.10;99.90;;;;;;4978713;28;20116;-78
2023/11/08 06:01:47;;;;;;;4.97;2.15;;;9.10;99.90;;;;;;4957242;28;20057;-78
2023/11/08 06:04:34;;;;;;;4.18;2.25;;;9.10;99.90;;;;;;4991231;28;20038;-78
2023/11/08 06:07:21;;;;;;;6.85;2.30;;;9.10;99.90;;;;;;4969417;28;20042;-78
2023/11/08 06:10:08;;;;;;;3.60;2.20;;;9.20;99.90;;;;;;4969042;28;20125;-78
2023/11/08 06:12:54;;;;;;;6.55;2.72;;;9.10;99.90;;;;;;4971866;28;20121;-78
2023/11/08 06:15:40;;;;;;;6.18;2.78;;;9.20;99.90;;;;;;4983134;28;20646;-78
2023/11/08 06:18:26;;;;;;;4.65;2.58;;;9.20;99.90;;;;;;4976332;28;20039;-78
2023/11/08 06:21:15;;;;;;;4.72;2.60;;;9.20;99.90;;;;;;4980637;28;20058;-78
2023/11/08 06:24:01;;;;;;;8.85;3.03;;;9.20;99.90;;;;;;4969256;28;20089;-78
2023/11/08 06:26:47;;;;;;;7.30;2.80;;;9.20;99.90;;;;;;4970134;28;20472;-78
2023/11/08 06:29:37;;;;;;;7.60;2.38;;;9.10;99.90;;;;;;4964442;28;20167;-78
2023/11/08 06:32:23;;;;;;;5.70;2.70;;;9.10;99.90;;;;;;4957919;28;20053;-78
2023/11/08 06:35:09;;;;;;;6.40;2.95;;;9.20;99.90;;;;;;4979992;28;20049;-78
2023/11/08 06:37:55;;;;;;;5.25;2.72;;;9.20;99.90;;;;;;4982738;28;20042;-78
2023/11/08 06:40:41;;;;;;;5.43;3.17;;;9.20;99.90;;;;;;4969210;28;20042;-78
2023/11/08 06:43:27;;;;;;;4.55;2.50;;;9.20;99.90;;;;;;4950335;28;20446;-78
2023/11/08 06:46:14;;;;;;;5.68;3.03;;;9.20;99.90;;;;;;4945905;28;20030;-78
2023/11/08 06:49:00;;;;;;;6.20;2.88;;;9.20;99.90;;;;;;4952060;28;20058;-76
2023/11/08 06:51:46;;;;;;;8.57;3.22;;;9.10;99.90;;;;;;4977668;28;20546;-77
2023/11/08 06:54:33;;;;;;;7.80;2.95;;;9.10;99.90;;;;;;4982855;28;20051;-77
2023/11/08 06:57:19;;;;;;;6.85;3.17;;;9.10;99.90;;;;;;4984026;28;20044;-78
2023/11/08 07:00:07;;;;;;;6.95;2.92;;;9.20;99.90;;;;;;4981371;28;20137;-77
2023/11/08 07:02:53;;;;;;;6.65;2.97;;;9.20;99.90;;;;;;4956160;28;20042;-78
2023/11/08 07:05:39;;;;;;;6.55;3.40;;;9.20;99.90;;;;;;4952677;28;20050;-77
2023/11/08 07:08:25;;;;;;;9.40;3.40;;;9.20;99.90;;;;;;4935920;28;20729;-77
2023/11/08 07:11:11;;;;;;;7.43;2.83;;;9.20;99.90;;;;;;4974683;28;20074;-77
2023/11/08 07:13:57;;;;;;;6.13;3.22;;;9.20;99.90;;;;;;4968553;28;20108;-77
2023/11/08 07:16:44;;;;;;;7.13;3.13;;;9.20;99.90;;;;;;4963465;28;20060;-77
2023/11/08 07:19:30;;;;;;;6.22;3.33;;;9.20;99.90;;;;;;4956467;28;20069;-77
2023/11/08 07:22:16;;;;;;;8.43;3.70;;;9.20;99.90;;;;;;4982195;28;20431;-73
2023/11/08 07:25:03;;;;;;;6.53;3.03;;;9.20;99.90;;;;;;4976412;28;20042;-74
2023/11/08 07:27:50;;;;;;;5.80;2.97;;;9.40;99.90;;;;;;4981554;28;20146;-75
2023/11/08 07:30:37;;;;;;;8.38;3.35;;;9.50;99.90;;;;;;4936742;28;20110;-75
2023/11/08 07:33:23;;;;;;;6.05;3.13;;;9.50;99.90;;;;;;4965378;28;20471;-74
2023/11/08 07:36:09;;;;;;;9.20;3.35;;;9.60;99.90;;;;;;4990718;28;20122;-75
2023/11/08 07:38:56;;;;;;;5.68;3.00;;;9.60;99.90;;;;;;4952144;28;20133;-75
2023/11/08 07:41:42;;;;;;;7.05;3.03;;;9.60;99.90;;;;;;4967975;28;20046;-75
2023/11/08 07:44:30;;;;;;;8.05;2.85;;;9.60;99.90;;;;;;4977221;28;20046;-75
2023/11/08 07:47:16;;;;;;;5.18;2.70;;;9.70;99.90;;;;;;4965803;28;20034;-75
2023/11/08 07:50:06;;;;;;;5.18;2.40;;;9.80;99.90;;;;;;4994533;28;20384;-75
2023/11/08 07:52:51;;;;;;;5.25;2.33;;;9.80;99.90;;;;;;4969001;28;20031;-75
2023/11/08 07:55:37;;;;;;;4.57;2.60;;;9.80;99.90;;;;;;4976783;28;20074;-75
2023/11/08 07:58:24;;;;;;;4.65;2.28;;;9.70;99.90;;;;;;4950596;28;20745;-75
2023/11/08 08:01:10;;;;;;;4.97;2.53;;;9.80;99.90;;;;;;4948657;28;20050;-74
2023/11/08 08:03:57;;;;;;;5.55;2.28;;;9.90;99.90;;;;;;4965560;28;20462;-75
2023/11/08 08:06:43;;;;;;;5.63;2.75;;;9.80;99.90;;;;;;4967296;28;20030;-75
2023/11/08 08:09:29;;;;;;;6.47;2.47;;;9.80;99.90;;;;;;4948315;28;20038;-74
2023/11/08 08:12:15;;;;;;;6.05;3.08;;;9.80;99.90;;;;;;4974216;28;20045;-74
2023/11/08 08:15:01;;;;;;;5.55;3.47;;;9.70;99.90;;;;;;4987320;28;20042;-74
2023/11/08 08:17:47;;;;;;;4.85;2.17;;;9.80;99.90;;;;;;4966606;28;20038;-75
2023/11/08 08:20:33;;;;;;;6.05;2.20;;;9.80;99.90;;;;;;4980238;28;20112;-74
2023/11/08 08:23:19;;;;;;;4.60;2.50;;;9.80;99.90;;;;;;4981134;28;20050;-74
2023/11/08 08:26:05;;;;;;;7.40;2.47;;;9.80;99.90;;;;;;4995305;28;20117;-75
2023/11/08 08:28:51;;;;;;;5.03;2.13;;;9.90;99.90;;;;;;4980533;28;20042;-75
2023/11/08 08:31:37;;;;;;;3.97;2.38;;;9.90;99.90;;;;;;4967065;28;20038;-75
2023/11/08 08:34:23;;;;;;;6.20;2.30;;;9.90;99.90;;;;;;4960601;28;20038;-75
2023/11/08 08:37:09;;;;;;;5.00;2.28;;;9.90;99.90;;;;;;4955891;28;20109;-75
2023/11/08 08:39:55;;;;;;;4.22;2.45;;;9.90;99.90;;;;;;4971560;28;20034;-75
2023/11/08 08:42:41;;;;;;;5.78;2.70;;;10.00;99.90;;;;;;4965961;28;20061;-75
2023/11/08 08:45:27;;;;;;;4.07;2.53;;;9.90;99.90;;;;;;4970414;28;20035;-75
2023/11/08 08:48:14;;;;;;;5.10;2.20;;;10.00;99.90;;;;;;4979724;28;20463;-75
2023/11/08 08:51:01;;;;;;;4.93;2.30;;;10.00;99.90;;;;;;4978108;28;20614;-77
2023/11/08 08:53:47;;;;;;;3.85;2.10;;;10.00;99.90;;;;;;4980252;28;20086;-77
2023/11/08 08:56:37;;;;;;;3.72;2.03;;;9.90;99.90;;;;;;4979671;28;20677;-77
2023/11/08 08:59:22;;;;;;;6.00;2.28;;;9.90;99.90;;;;;;4980525;28;20145;-77
2023/11/08 09:02:08;;;;;;;9.98;3.25;;;9.90;99.90;;;;;;4969534;28;20081;-77
2023/11/08 09:04:54;;;;;;;5.90;1.98;;;9.90;99.90;;;;;;4990093;28;20073;-77
2023/11/08 09:07:40;;;;;;;6.50;2.25;;;9.90;99.90;;;;;;4969780;28;20128;-77
2023/11/08 09:10:26;;;;;;;3.53;1.63;;;9.90;99.90;;;;;;4964761;28;20049;-77
2023/11/08 09:13:13;;;;;;;4.38;2.00;;;10.00;99.90;;;;;;4967302;28;20047;-77
2023/11/08 09:16:01;;;;;;;6.18;2.05;;;10.10;99.90;;;;;;4951423;28;20082;-77
2023/11/08 09:18:48;;;;;;;5.13;1.75;;;10.10;99.90;;;;;;4979683;28;20081;-77
2023/11/08 09:21:34;;;;;;;5.80;1.90;;;10.10;99.90;;;;;;4953453;28;20050;-77
2023/11/08 09:24:20;;;;;;;4.05;1.63;;;10.10;99.90;;;;;;4991243;28;20067;-77
2023/11/08 09:27:06;;;;;;;5.65;2.17;;;10.10;99.90;;;;;;4980374;28;20141;-77
2023/11/08 09:29:52;;;;;;;4.55;1.85;;;10.10;99.90;;;;;;4995951;28;20074;-77
2023/11/08 09:32:38;;;;;;;7.28;3.95;;;10.20;99.90;;;;;;4990627;28;20042;-77
2023/11/08 09:35:24;;;;;;;4.75;1.85;;;10.20;99.90;;;;;;4969775;28;20038;-76
2023/11/08 09:38:12;;;;;;;6.03;1.80;;;10.10;99.90;;;;;;4969555;28;20046;-77
2023/11/08 09:40:58;;;;;;;5.63;2.05;;;10.20;99.90;;;;;;4969746;28;20050;-76
2023/11/08 09:43:44;;;;;;;3.53;1.77;;;10.20;99.90;;;;;;4964962;28;20046;-76
2023/11/08 09:46:31;;;;;;;5.88;2.28;;;10.20;99.90;;;;;;4967964;28;20097;-77
2023/11/08 09:49:17;;;;;;;6.53;1.90;;;10.20;99.90;;;;;;4962593;28;20543;-76
2023/11/08 09:52:03;;;;;;;7.78;2.65;;;10.20;99.90;;;;;;4966342;28;20046;-76
2023/11/08 09:54:49;;;;;;;3.88;1.85;;;10.10;99.90;;;;;;4995481;28;20100;-76
2023/11/08 09:57:36;;;;;;;6.53;2.53;;;10.20;99.90;;;;;;4970545;28;20178;-76
2023/11/08 10:00:23;;;;;;;6.70;2.50;;;10.20;99.90;;;;;;4976277;28;20038;-77
2023/11/08 10:03:09;;;;;;;4.97;2.17;;;10.20;99.90;;;;;;4964170;28;20095;-75
2023/11/08 10:05:55;;;;;;;6.03;2.50;;;10.30;99.90;;;;;;4983461;28;20143;-74
2023/11/08 10:08:41;;;;;;;7.03;2.05;;;10.30;99.90;;;;;;4969550;28;20042;-74
2023/11/08 10:11:29;;;;;;;7.75;3.35;;;10.20;99.90;;;;;;4969925;28;20065;-76
2023/11/08 10:14:30;;;;;;;5.88;2.05;;;10.20;99.90;;;;;;4966692;28;20367;-78
2023/11/08 10:17:17;;;;;;;5.38;2.47;;;10.20;99.90;;;;;;4955056;28;20074;-77
2023/11/08 10:20:07;;;;;;;8.48;2.88;;;10.20;99.90;;;;;;4980229;28;20073;-77
2023/11/08 10:22:54;;;;;;;6.15;1.90;;;10.20;99.90;;;;;;4969583;28;20050;-77
2023/11/08 10:25:41;;;;;;;7.50;2.40;;;10.20;99.90;;;;;;4969989;28;20070;-77
2023/11/08 10:28:27;;;;;;;5.40;2.50;;;10.20;99.90;;;;;;4981735;28;20034;-77
2023/11/08 10:31:37;;;;;;;7.95;1.98;;;10.20;99.90;;;;;;4983628;28;20070;-77
2023/11/08 10:34:23;;;;;;;4.20;1.60;;;10.20;99.90;;;;;;4970990;28;20043;-77
2023/11/08 10:37:25;;;;;;;3.53;1.60;;;10.20;99.90;;;;;;4968129;28;20038;-77
2023/11/08 10:40:15;;;;;;;4.63;1.70;;;10.30;99.90;;;;;;4954408;28;20153;-77
2023/11/08 10:43:02;;;;;;;4.75;1.75;;;10.30;99.90;;;;;;4968467;28;20105;-77
2023/11/08 10:45:49;;;;;;;7.15;1.83;;;10.30;99.90;;;;;;4995944;28;20038;-77
2023/11/08 10:48:35;;;;;;;5.53;1.50;;;10.40;99.90;;;;;;4982375;28;20445;-76
2023/11/08 10:51:21;;;;;;;6.20;2.20;;;10.40;99.90;;;;;;4960223;28;20121;-77
2023/11/08 10:54:07;;;;;;;8.35;1.90;;;10.40;99.90;;;;;;4961689;28;20500;-77
2023/11/08 10:56:54;;;;;;;6.10;1.70;;;10.40;99.90;;;;;;4962745;28;20112;-77
2023/11/08 10:59:41;;;;;;;4.15;1.52;;;10.40;99.90;;;;;;4975269;28;20057;-77
2023/11/08 11:02:44;;;;;;;5.57;1.70;;;10.70;99.90;;;;;;4982101;28;20050;-77
2023/11/08 11:05:30;;;;;;;4.10;1.40;;;11.20;99.90;;;;;;4970422;28;20093;-77
2023/11/08 11:08:19;;;;;;;4.30;1.30;;;12.00;99.90;;;;;;4959538;28;20046;-78
2023/11/08 11:11:05;;;;;;;8.07;1.55;;;12.50;99.90;;;;;;4982953;28;20038;-76
2023/11/08 11:13:55;;;;;;;5.45;1.70;;;12.80;99.90;;;;;;4954741;28;20046;-77
2023/11/08 11:16:44;;;;;;;4.20;1.50;;;12.60;99.90;;;;;;4962475;28;20097;-77
2023/11/08 11:19:30;;;;;;;6.55;1.88;;;12.20;99.90;;;;;;4966550;28;20038;-78
2023/11/08 11:22:18;;;;;;;8.63;1.77;;;12.00;99.90;;;;;;4954470;28;20476;-77
2023/11/08 11:25:05;;;;;;;4.05;1.30;;;11.80;99.90;;;;;;4954129;28;20038;-77
2023/11/08 11:27:51;;;;;;;3.22;1.20;;;11.60;99.90;;;;;;4985942;28;20501;-77
2023/11/08 11:30:37;;;;;;;5.75;1.70;;;11.60;99.90;;;;;;4963225;28;20039;-78
2023/11/08 11:33:32;;;;;;;5.32;1.40;;;11.50;99.90;;;;;;4950606;28;20062;-77
2023/11/08 11:36:19;;;;;;;5.20;1.20;;;11.40;99.90;;;;;;4972421;28;20056;-77
2023/11/08 11:39:12;;;;;;;5.05;1.50;;;11.40;99.90;;;;;;4986751;28;20046;-77
2023/11/08 11:41:58;;;;;;;3.92;1.20;;;11.40;99.90;;;;;;5000622;28;20038;-77
2023/11/08 11:44:45;;;;;;;4.43;1.20;;;12.10;99.90;;;;;;4997684;28;20801;-77
2023/11/08 11:47:32;;;;;;;4.47;1.42;;;12.20;99.90;;;;;;4989708;28;20079;-77
2023/11/08 11:50:18;;;;;;;5.68;1.80;;;12.60;99.90;;;;;;4981502;28;21007;-78
2023/11/08 11:53:04;;;;;;;6.63;1.65;;;13.10;99.90;;;;;;4968154;28;20030;-78
2023/11/08 11:55:50;;;;;;;5.57;1.40;;;13.30;99.90;;;;;;4996298;28;20050;-77
2023/11/08 11:58:36;;;;;;;4.60;1.45;;;13.50;99.90;;;;;;4950951;28;20057;-77
2023/11/08 12:01:23;;;;;;;4.50;1.00;;;13.40;99.90;;;;;;4981369;28;20042;-78
2023/11/08 12:04:11;;;;;;;7.00;1.17;;;13.50;99.90;;;;;;4979689;28;20088;-77
2023/11/08 12:06:56;;;;;;;3.08;1.05;;;13.70;99.90;;;;;;4980111;28;20481;-78
2023/11/08 12:09:44;;;;;;;7.32;1.95;;;13.60;99.90;;;;;;4966063;28;20046;-78
2023/11/08 12:12:31;;;;;;;2.80;1.20;;;13.60;99.90;;;;;;4958586;28;20042;-76
2023/11/08 12:15:20;;;;;;;5.15;2.22;;;13.60;99.90;;;;;;4956757;28;20042;-76
2023/11/08 12:18:08;;;;;;;5.30;1.52;;;13.70;99.90;;;;;;4967248;28;20133;-75
2023/11/08 12:20:54;;;;;;;4.20;1.23;;;13.70;99.90;;;;;;4979782;28;20065;-76
2023/11/08 12:23:46;;;;;;;8.20;1.70;;;13.60;99.90;;;;;;4965460;28;20479;-75
2023/11/08 12:26:32;;;;;;;3.88;1.38;;;13.90;99.90;;;;;;4946630;28;20058;-75
2023/11/08 12:29:18;;;;;;;4.75;1.00;;;14.30;99.90;;;;;;4971862;28;20121;-75
2023/11/08 12:32:05;;;;;;;3.65;1.10;;;14.80;99.90;;;;;;4974420;28;20485;-76
2023/11/08 12:34:53;;;;;;;4.65;1.40;;;14.70;99.90;;;;;;4961927;28;20038;-75
2023/11/08 12:37:39;;;;;;;4.60;1.25;;;15.30;99.90;;;;;;4964289;28;20038;-75
2023/11/08 12:40:27;;;;;;;5.43;1.30;;;14.90;99.90;;;;;;4991481;28;20049;-74
2023/11/08 12:43:14;;;;;;;4.33;1.23;;;14.30;99.90;;;;;;4979781;28;20096;-75
2023/11/08 12:46:04;;;;;;;3.57;1.10;;;13.70;99.90;;;;;;4936108;28;20074;-75
2023/11/08 12:48:58;;;;;;;4.72;1.30;;;13.40;99.90;;;;;;4971764;28;20070;-75
2023/11/08 12:51:45;;;;;;;5.57;1.50;;;13.00;99.90;;;;;;4989492;28;20034;-76
2023/11/08 12:54:31;;;;;;;6.00;1.25;;;12.70;99.90;;;;;;4964208;28;20046;-76
2023/11/08 12:57:26;;;;;;;4.45;1.30;;;12.50;99.90;;;;;;4972007;28;20473;-77
2023/11/08 13:00:14;;;;;;;3.33;1.20;;;12.40;99.90;;;;;;4945093;28;20038;-77
2023/11/08 13:03:00;;;;;;;3.28;1.13;;;12.30;99.90;;;;;;4963112;28;20038;-76
2023/11/08 13:05:53;;;;;;;3.17;1.05;;;12.30;99.90;;;;;;4965501;28;20164;-77
2023/11/08 13:08:39;;;;;;;2.80;1.08;;;12.00;99.90;;;;;;4954425;28;20117;-76
2023/11/08 13:11:25;;;;;;;3.97;1.40;;;11.90;99.90;;;;;;4980486;28;20422;-76
2023/11/08 13:14:11;;;;;;;5.00;1.02;;;11.80;99.90;;;;;;4993050;28;20776;-76
2023/11/08 13:16:57;;;;;;;4.75;1.08;;;11.90;99.90;;;;;;4967943;28;20042;-76
2023/11/08 13:19:43;;;;;;;4.95;1.25;;;12.00;99.90;;;;;;4973672;28;20050;-77
2023/11/08 13:22:29;;;;;;;3.20;0.98;;;12.00;99.90;;;;;;4981049;28;20043;-77
2023/11/08 13:25:15;;;;;;;5.35;1.02;;;12.20;99.90;;;;;;4966434;28;20101;-77
2023/11/08 13:28:02;;;;;;;3.83;1.10;;;12.20;99.90;;;;;;4979287;28;20503;-76
2023/11/08 13:30:49;;;;;;;8.38;1.45;;;12.10;99.90;;;;;;4948085;28;20043;-77
2023/11/08 13:33:35;;;;;;;2.75;0.77;;;12.10;99.90;;;;;;4977705;28;20045;-77
2023/11/08 13:36:25;;;;;;;4.68;1.20;;;12.10;99.90;;;;;;4980495;28;20637;-76
2023/11/08 13:39:12;;;;;;;4.15;1.23;;;12.00;99.90;;;;;;4953501;28;20047;-76
2023/11/08 13:41:59;;;;;;;2.22;0.90;;;12.00;99.90;;;;;;4979463;28;20046;-77
2023/11/08 13:44:45;;;;;;;4.20;0.93;;;12.00;99.90;;;;;;4978620;28;20746;-76
2023/11/08 13:47:31;;;;;;;4.22;1.10;;;12.30;99.90;;;;;;4979915;28;20034;-76
2023/11/08 13:50:18;;;;;;;4.97;0.90;;;12.40;99.90;;;;;;4969233;28;20049;-76
2023/11/08 13:53:06;;;;;;;3.75;1.13;;;12.30;99.90;;;;;;4979619;28;20038;-76
2023/11/08 13:55:53;;;;;;;2.53;0.70;;;12.30;99.90;;;;;;4967565;28;20133;-76
2023/11/08 13:58:39;;;;;;;5.75;1.40;;;12.20;99.90;;;;;;4979060;28;20487;-76
2023/11/08 14:01:26;;;;;;;4.50;1.20;;;12.00;99.90;;;;;;4995933;28;20091;-76
2023/11/08 14:04:12;;;;;;;3.13;1.10;;;11.90;99.90;;;;;;4969826;28;20042;-76
2023/11/08 14:06:58;;;;;;;3.78;1.05;;;11.90;99.90;;;;;;4969969;28;20055;-77
2023/11/08 14:09:44;;;;;;;4.38;1.38;;;11.80;99.90;;;;;;4963590;28;20042;-76
2023/11/08 14:12:30;;;;;;;3.67;1.20;;;11.70;99.90;;;;;;4976474;28;20116;-76
2023/11/08 14:15:17;;;;;;;6.10;1.20;;;11.60;99.90;;;;;;4964036;28;20097;-76
2023/11/08 14:18:07;;;;;;;3.85;0.95;;;11.50;99.90;;;;;;4993483;28;20085;-76
2023/11/08 14:20:55;;;;;;;4.63;0.77;;;11.40;99.90;;;;;;4977087;28;20062;-76
2023/11/08 14:23:41;;;;;;;;;;;11.50;99.90;;;;;;4974222;28;20054;-76
2023/11/08 14:26:28;;;;;;;10.02;1.33;;;11.50;99.90;;;;;;4982556;28;19910;-77
2023/11/08 14:29:16;;;;;;;3.60;1.20;;;11.40;99.90;;;;;;4968395;28;20066;-77
2023/11/08 14:32:02;;;;;;;4.88;1.67;;;11.40;99.90;;;;;;4951918;28;20113;-76
2023/11/08 14:34:48;;;;;;;4.68;1.00;;;11.30;99.90;;;;;;4957601;28;20038;-77